Time;durP1;ratioP1;P1;durP2;ratioP2;P2;SDS_P1;SDS_P2;PMS_P1;PMS_P2;Temp;Humidity;BMP_temperature;BMP_pressure;BME280_temperature;BME280_humidity;BME280_pressure;Samples;Min_cycle;Max_cycle;Signal;HPM_P1;HPM_P2
2021/12/31 00:01:27;;;;;;;97.70;5.33;;;;;;;12.60;100.00;98533.00;5077215;28;20673;-80
2021/12/31 00:03:55;;;;;;;82.87;4.90;;;;;;;12.64;100.00;98523.41;5077477;28;20601;-80
2021/12/31 00:06:22;;;;;;;54.87;3.97;;;;;;;12.65;100.00;98526.88;5074016;28;20697;-73
2021/12/31 00:08:49;;;;;;;107.53;6.73;;;;;;;12.67;100.00;98544.31;5071980;28;20732;-75
2021/12/31 00:11:15;;;;;;;72.83;5.67;;;;;;;12.66;100.00;98537.34;5105715;28;20877;-75
2021/12/31 00:13:42;;;;;;;55.07;4.33;;;;;;;12.66;100.00;98541.88;5073350;28;20610;-79
2021/12/31 00:16:09;;;;;;;79.13;5.20;;;;;;;12.58;100.00;98535.16;5075289;28;20609;-79
2021/12/31 00:18:40;;;;;;;53.23;3.73;;;;;;;12.65;100.00;98543.78;5077960;28;20602;-79
2021/12/31 00:21:06;;;;;;;47.90;3.07;;;;;;;12.62;100.00;98538.13;5075382;28;20660;-79
2021/12/31 00:23:33;;;;;;;105.90;6.20;;;;;;;12.62;100.00;98536.25;5074192;28;20602;-79
2021/12/31 00:26:00;;;;;;;90.07;4.90;;;;;;;12.58;100.00;98535.16;5072551;28;20617;-79
2021/12/31 00:28:26;;;;;;;71.73;4.37;;;;;;;12.64;100.00;98539.47;5074837;28;20668;-79
2021/12/31 00:30:55;;;;;;;80.87;5.07;;;;;;;12.69;100.00;98539.50;5074600;28;20939;-79
2021/12/31 00:33:23;;;;;;;66.57;5.27;;;;;;;12.64;100.00;98547.50;5076385;28;20698;-79
2021/12/31 00:35:51;;;;;;;55.23;3.90;;;;;;;12.65;100.00;98551.81;5076326;28;20586;-79
2021/12/31 00:38:18;;;;;;;70.00;4.63;;;;;;;12.63;100.00;98551.25;5072608;28;20606;-80
2021/12/31 00:40:45;;;;;;;83.33;5.33;;;;;;;12.62;100.00;98557.69;5074223;28;20666;-79
2021/12/31 00:43:12;;;;;;;114.60;6.80;;;;;;;12.60;100.00;98546.41;5083246;28;20728;-75
2021/12/31 00:45:40;;;;;;;128.67;7.57;;;;;;;12.61;100.00;98561.44;5076435;28;21177;-75
2021/12/31 00:48:09;;;;;;;90.00;5.87;;;;;;;12.62;100.00;98555.03;5073964;28;20609;-75
2021/12/31 00:50:36;;;;;;;57.00;4.13;;;;;;;12.64;100.00;98562.78;5075992;28;20624;-80
2021/12/31 00:53:05;;;;;;;55.83;3.63;;;;;;;12.67;100.00;98565.75;5080287;28;20605;-80
2021/12/31 00:55:32;;;;;;;44.03;3.33;;;;;;;12.72;100.00;98563.09;5078605;28;21412;-79
2021/12/31 00:57:59;;;;;;;35.73;2.53;;;;;;;12.74;100.00;98571.69;5076558;28;20676;-79
2021/12/31 01:00:25;;;;;;;40.90;2.50;;;;;;;12.74;100.00;98566.34;5072869;28;20642;-79
2021/12/31 01:02:52;;;;;;;33.87;3.13;;;;;;;12.76;100.00;98561.50;5073255;28;20605;-79
2021/12/31 01:05:19;;;;;;;28.40;2.43;;;;;;;12.77;100.00;98565.81;5078301;28;20597;-79
2021/12/31 01:07:46;;;;;;;67.53;4.47;;;;;;;12.74;100.00;98570.88;5077234;28;20602;-79
2021/12/31 01:10:18;;;;;;;56.80;3.60;;;;;;;12.79;100.00;98565.53;5073770;28;20626;-79
2021/12/31 01:12:46;;;;;;;107.97;6.20;;;;;;;12.76;100.00;98569.53;5074264;28;21484;-79
2021/12/31 01:15:20;;;;;;;66.50;4.10;;;;;;;12.57;100.00;98560.34;5076266;28;20701;-79
2021/12/31 01:18:13;;;;;;;69.90;3.83;;;;;;;12.62;100.00;98560.38;5077272;28;21411;-79
2021/12/31 01:20:37;;;;;;;70.30;4.20;;;;;;;12.65;100.00;98564.41;5079627;28;20657;-79
2021/12/31 01:23:06;;;;;;;66.53;4.17;;;;;;;12.56;100.00;98566.78;5085746;28;21084;-79
2021/12/31 01:25:35;;;;;;;77.03;4.63;;;;;;;12.61;100.00;98572.16;5090099;28;20694;-79
2021/12/31 01:28:02;;;;;;;69.57;4.37;;;;;;;12.63;100.00;98569.19;5079323;28;21135;-79
2021/12/31 01:30:29;;;;;;;65.00;4.40;;;;;;;12.65;100.00;98567.09;5080001;28;20616;-79
2021/12/31 01:32:56;;;;;;;72.67;4.10;;;;;;;12.69;100.00;98573.53;5080575;28;20662;-79
2021/12/31 01:35:22;;;;;;;58.13;3.87;;;;;;;12.62;100.00;98573.78;5082764;28;20608;-79
2021/12/31 01:37:49;;;;;;;59.07;3.53;;;;;;;12.63;100.00;98567.34;5080909;28;20609;-79
2021/12/31 01:40:16;;;;;;;69.90;4.10;;;;;;;12.69;100.00;98574.31;5077819;28;20721;-79
2021/12/31 01:42:44;;;;;;;66.33;4.13;;;;;;;12.67;100.00;98568.44;5078757;28;20594;-79
2021/12/31 01:45:15;;;;;;;32.50;1.90;;;;;;;12.66;100.00;98577.53;5081301;28;20635;-79
2021/12/31 01:47:56;;;;;;;114.10;6.00;;;;;;;12.74;100.00;98581.59;5081624;28;20605;-79
2021/12/31 01:50:24;;;;;;;71.53;4.07;;;;;;;12.68;100.00;98572.75;5078127;28;20598;-79
2021/12/31 01:52:51;;;;;;;48.03;3.10;;;;;;;12.69;100.00;98571.66;5084033;28;20597;-79
2021/12/31 01:55:18;;;;;;;57.37;3.87;;;;;;;12.71;100.00;98579.44;5072932;28;20613;-79
2021/12/31 01:57:47;;;;;;;49.43;3.37;;;;;;;12.75;100.00;98578.66;5080034;28;20640;-79
2021/12/31 02:00:14;;;;;;;60.50;3.77;;;;;;;12.75;100.00;98577.88;5076479;28;20661;-79
2021/12/31 02:02:44;;;;;;;53.23;3.70;;;;;;;12.79;100.00;98574.38;5075497;28;20602;-78
2021/12/31 02:05:12;;;;;;;52.93;3.40;;;;;;;12.77;100.00;98578.41;5078087;28;21327;-78
2021/12/31 02:07:39;;;;;;;65.60;4.07;;;;;;;12.78;100.00;98575.44;5095679;28;20688;-78
2021/12/31 02:10:09;;;;;;;57.87;3.53;;;;;;;12.80;100.00;98581.38;5076514;28;20610;-79
2021/12/31 02:12:36;;;;;;;58.77;4.03;;;;;;;12.71;100.00;98572.22;5076476;28;20952;-78
2021/12/31 02:15:05;;;;;;;52.30;3.70;;;;;;;12.69;100.00;98570.88;5077870;28;20602;-78
2021/12/31 02:17:31;;;;;;;50.90;3.27;;;;;;;12.70;100.00;98570.59;5079690;28;20605;-79
2021/12/31 02:20:03;;;;;;;55.70;3.40;;;;;;;12.77;100.00;98568.50;5077717;28;21532;-80
2021/12/31 02:22:30;;;;;;;47.47;2.83;;;;;;;12.70;100.00;98567.09;5080129;28;20613;-79
2021/12/31 02:25:00;;;;;;;67.50;3.63;;;;;;;12.75;100.00;98577.88;5070105;28;20701;-79
2021/12/31 02:27:28;;;;;;;70.43;4.23;;;;;;;12.70;100.00;98570.59;5079147;28;20616;-79
2021/12/31 02:29:54;;;;;;;71.83;4.83;;;;;;;12.67;100.00;98568.44;5077363;28;20613;-79
2021/12/31 02:32:21;;;;;;;77.47;4.73;;;;;;;12.70;100.00;98569.78;5074635;28;20605;-79
2021/12/31 02:34:49;;;;;;;70.47;3.90;;;;;;;12.67;100.00;98571.13;5079554;28;20602;-79
2021/12/31 02:37:17;;;;;;;66.10;4.40;;;;;;;12.60;100.00;98572.41;5075163;28;20944;-79
2021/12/31 02:39:44;;;;;;;60.60;3.90;;;;;;;12.56;100.00;98569.47;5082042;28;20637;-79
2021/12/31 02:42:11;;;;;;;48.90;3.13;;;;;;;12.48;100.00;98561.88;5076328;28;20637;-79
2021/12/31 02:44:38;;;;;;;47.60;3.33;;;;;;;12.53;100.00;98567.28;5075601;28;20640;-80
2021/12/31 02:47:06;;;;;;;59.27;3.70;;;;;;;12.56;100.00;98564.09;5077489;28;20630;-80
2021/12/31 02:49:38;;;;;;;56.37;4.07;;;;;;;12.60;100.00;98570.53;5079915;28;20601;-79
2021/12/31 02:52:06;;;;;;;46.17;2.73;;;;;;;12.59;100.00;98560.91;5078000;28;20593;-79
2021/12/31 02:54:37;;;;;;;33.37;2.20;;;;;;;12.55;100.00;98557.13;5073222;28;20628;-79
2021/12/31 02:57:04;;;;;;;60.20;3.90;;;;;;;12.59;100.00;98555.53;5075291;28;20633;-80
2021/12/31 02:59:31;;;;;;;58.80;3.67;;;;;;;12.60;100.00;98562.50;5092360;28;20598;-79
2021/12/31 03:01:59;;;;;;;82.40;4.77;;;;;;;12.61;100.00;98560.63;5076367;28;20669;-79
2021/12/31 03:04:28;;;;;;;78.17;5.07;;;;;;;12.46;100.00;98558.69;5078970;28;20621;-79
2021/12/31 03:06:57;;;;;;;39.77;3.37;;;;;;;12.55;100.00;98559.78;5078301;28;20629;-79
2021/12/31 03:09:26;;;;;;;62.60;3.83;;;;;;;12.61;100.00;98558.75;5076756;28;20602;-79
2021/12/31 03:11:58;;;;;;;41.47;2.70;;;;;;;12.58;100.00;98545.88;5081198;28;20637;-79
2021/12/31 03:14:27;;;;;;;72.50;4.63;;;;;;;12.58;100.00;98545.88;5078875;28;20647;-79
2021/12/31 03:16:54;;;;;;;44.27;3.10;;;;;;;12.62;100.00;98543.50;5077909;28;20629;-79
2021/12/31 03:19:21;;;;;;;81.17;4.63;;;;;;;12.56;100.00;98548.03;5076326;28;20605;-79
2021/12/31 03:21:48;;;;;;;80.53;5.03;;;;;;;12.54;100.00;98539.41;5078919;28;20662;-79
2021/12/31 03:24:15;;;;;;;35.23;2.63;;;;;;;12.57;100.00;98536.22;5081189;28;20626;-79
2021/12/31 03:26:42;;;;;;;53.17;3.33;;;;;;;12.63;100.00;98535.19;5074415;28;20607;-79
2021/12/31 03:29:10;;;;;;;39.47;3.43;;;;;;;12.70;100.00;98527.72;5077120;28;20747;-79
2021/12/31 03:31:37;;;;;;;77.77;4.67;;;;;;;12.74;100.00;98534.16;5078157;28;20616;-79
2021/12/31 03:34:03;;;;;;;94.93;5.57;;;;;;;12.64;100.00;98528.75;5076042;28;20700;-79
2021/12/31 03:36:30;;;;;;;58.90;3.93;;;;;;;12.63;100.00;98524.47;5077736;28;20586;-79
2021/12/31 03:38:57;;;;;;;65.07;3.80;;;;;;;12.67;100.00;98536.28;5077909;28;20594;-79
2021/12/31 03:41:23;;;;;;;73.63;4.43;;;;;;;12.65;100.00;98535.75;5081394;28;20645;-79
2021/12/31 03:43:50;;;;;;;82.57;4.90;;;;;;;12.72;100.00;98541.66;5114959;28;20620;-79
2021/12/31 03:46:18;;;;;;;111.37;5.97;;;;;;;12.74;100.00;98538.72;5078171;28;20594;-79
2021/12/31 03:48:45;;;;;;;99.20;5.73;;;;;;;12.68;100.00;98534.41;5082856;28;20632;-79
2021/12/31 03:51:11;;;;;;;90.77;5.27;;;;;;;12.64;100.00;98538.66;5086343;28;20637;-79
2021/12/31 03:53:38;;;;;;;57.80;4.10;;;;;;;12.61;100.00;98533.81;5079210;28;20616;-79
2021/12/31 03:56:05;;;;;;;100.23;5.80;;;;;;;12.68;100.00;98542.44;5079457;28;21086;-79
2021/12/31 03:58:32;;;;;;;34.97;2.20;;;;;;;12.64;100.00;98539.47;5079821;28;20598;-79
2021/12/31 04:00:59;;;;;;;53.20;3.10;;;;;;;12.60;100.00;98533.00;5084758;28;20672;-79
2021/12/31 04:03:27;;;;;;;113.40;6.17;;;;;;;12.62;100.00;98535.44;5081141;28;20809;-79
2021/12/31 04:05:53;;;;;;;68.67;4.33;;;;;;;12.61;100.00;98531.97;5078486;28;20606;-79
2021/12/31 04:08:20;;;;;;;47.07;2.73;;;;;;;12.45;100.00;98520.34;5075874;28;20599;-79
2021/12/31 04:10:47;;;;;;;97.77;4.73;;;;;;;12.43;100.00;98532.41;5075802;28;20626;-79
2021/12/31 04:13:14;;;;;;;55.73;3.40;;;;;;;12.59;100.00;98525.25;5078384;28;20617;-80
2021/12/31 04:15:41;;;;;;;75.53;4.43;;;;;;;12.55;100.00;98524.97;5085549;28;20610;-80
2021/12/31 04:18:07;;;;;;;59.57;3.47;;;;;;;12.64;100.00;98526.06;5091854;28;20624;-79
2021/12/31 04:20:39;;;;;;;57.50;3.33;;;;;;;12.65;100.00;98521.53;5073394;28;21304;-80
2021/12/31 04:23:12;;;;;;;64.40;3.80;;;;;;;12.68;100.00;98535.22;5080159;28;20604;-79
2021/12/31 04:25:38;;;;;;;57.97;3.73;;;;;;;12.65;100.00;98537.59;5072103;28;20669;-79
2021/12/31 04:28:06;;;;;;;113.30;6.40;;;;;;;12.67;100.00;98536.28;5075246;28;20662;-80
2021/12/31 04:30:33;;;;;;;80.87;4.60;;;;;;;12.64;100.00;98535.97;5075975;28;20606;-79
2021/12/31 04:33:01;;;;;;;71.07;4.70;;;;;;;12.62;100.00;98540.81;5077446;28;20646;-80
2021/12/31 04:35:28;;;;;;;69.97;4.47;;;;;;;12.50;100.00;98533.00;5079601;28;20688;-79
2021/12/31 04:37:56;;;;;;;57.60;3.87;;;;;;;12.50;100.00;98534.84;5079000;28;20677;-79
2021/12/31 04:40:23;;;;;;;49.20;3.30;;;;;;;12.56;100.00;98531.94;5075447;28;20603;-80
2021/12/31 04:42:50;;;;;;;83.70;4.77;;;;;;;12.61;100.00;98544.53;5079669;28;20636;-79
2021/12/31 04:45:18;;;;;;;76.47;4.50;;;;;;;12.60;100.00;98545.59;5071815;28;20609;-80
2021/12/31 04:47:44;;;;;;;74.70;4.10;;;;;;;12.53;100.00;98537.81;5077391;28;20597;-79
2021/12/31 04:50:12;;;;;;;39.30;2.63;;;;;;;12.52;100.00;98532.72;5078033;28;20598;-80
2021/12/31 04:52:39;;;;;;;54.23;3.60;;;;;;;12.56;100.00;98542.66;5085027;28;20697;-80
2021/12/31 04:55:08;;;;;;;85.50;4.90;;;;;;;12.60;100.00;98537.56;5077731;28;20621;-80
2021/12/31 04:57:35;;;;;;;58.47;3.80;;;;;;;12.58;100.00;98537.84;5083910;28;20685;-79
2021/12/31 05:00:02;;;;;;;63.47;3.90;;;;;;;12.57;100.00;98536.22;5082059;28;20589;-79
2021/12/31 05:02:28;;;;;;;78.30;4.83;;;;;;;12.45;100.00;98536.44;5079870;28;20996;-79
2021/12/31 05:04:55;;;;;;;56.17;3.50;;;;;;;12.58;100.00;98537.84;5080386;28;20603;-79
2021/12/31 05:07:23;;;;;;;90.07;5.13;;;;;;;12.57;100.00;98530.84;5083234;28;20597;-79
2021/12/31 05:09:49;;;;;;;75.43;4.20;;;;;;;12.47;100.00;98538.88;5082863;28;20609;-79
2021/12/31 05:12:24;;;;;;;113.43;6.30;;;;;;;12.44;100.00;98532.13;5079386;28;20606;-79
2021/12/31 05:14:50;;;;;;;66.67;4.53;;;;;;;12.40;100.00;98535.59;5079306;28;20634;-79
2021/12/31 05:17:17;;;;;;;47.43;2.93;;;;;;;12.56;100.00;98536.50;5083062;28;20609;-79
2021/12/31 05:19:44;;;;;;;62.50;3.93;;;;;;;12.58;100.00;98540.53;5099947;28;20604;-79
2021/12/31 05:22:11;;;;;;;59.03;3.60;;;;;;;12.59;100.00;98538.66;5098238;28;20657;-79
2021/12/31 05:24:39;;;;;;;35.90;2.07;;;;;;;12.56;100.00;98529.25;5084712;28;20638;-79
2021/12/31 05:27:06;;;;;;;60.77;3.77;;;;;;;12.58;100.00;98537.03;5082096;28;20602;-80
2021/12/31 05:29:35;;;;;;;62.90;4.33;;;;;;;12.57;100.00;98538.91;5083123;28;20605;-80
2021/12/31 05:32:03;;;;;;;100.47;6.70;;;;;;;12.58;100.00;98529.81;5081969;28;20605;-80
2021/12/31 05:34:30;;;;;;;72.23;4.30;;;;;;;12.57;100.00;98538.09;5080564;28;20684;-80
2021/12/31 05:36:57;;;;;;;68.30;4.07;;;;;;;12.53;100.00;98535.16;5082247;28;20606;-79
2021/12/31 05:39:25;;;;;;;76.07;4.40;;;;;;;12.55;100.00;98530.31;5084275;28;20613;-80
2021/12/31 05:41:51;;;;;;;72.37;5.37;;;;;;;12.53;100.00;98534.34;5083158;28;20675;-80
2021/12/31 05:44:18;;;;;;;107.70;7.30;;;;;;;12.48;100.00;98535.09;5082632;28;20606;-80
2021/12/31 05:46:49;;;;;;;53.20;3.97;;;;;;;12.41;100.00;98535.31;5084103;28;20632;-79
2021/12/31 05:49:16;;;;;;;46.17;3.97;;;;;;;12.47;100.00;98548.78;5084930;28;20645;-80
2021/12/31 05:51:43;;;;;;;46.07;4.03;;;;;;;12.45;100.00;98551.69;5083294;28;20632;-79
2021/12/31 05:54:10;;;;;;;51.37;3.90;;;;;;;12.48;100.00;98543.13;5084071;28;20606;-79
2021/12/31 05:56:37;;;;;;;65.67;4.20;;;;;;;12.53;100.00;98545.88;5086341;28;20594;-78
2021/12/31 05:59:03;;;;;;;69.97;4.67;;;;;;;12.56;100.00;98550.69;5082979;28;20649;-79
2021/12/31 06:01:30;;;;;;;52.93;4.03;;;;;;;12.48;100.00;98540.47;5120133;28;20655;-79
2021/12/31 06:03:58;;;;;;;52.90;3.90;;;;;;;12.52;100.00;98551.47;5084551;28;20593;-79
2021/12/31 06:06:25;;;;;;;45.10;3.50;;;;;;;12.47;100.00;98546.91;5079664;28;20688;-79
2021/12/31 06:08:52;;;;;;;38.70;2.90;;;;;;;12.48;100.00;98550.38;5079507;28;20594;-80
2021/12/31 06:11:18;;;;;;;51.30;3.93;;;;;;;12.48;100.00;98558.41;5081646;28;20623;-80
2021/12/31 06:13:49;;;;;;;57.67;4.10;;;;;;;12.44;100.00;98560.78;5081473;28;20644;-80
2021/12/31 06:16:16;;;;;;;56.30;4.10;;;;;;;12.51;100.00;98553.34;5076963;28;20673;-78
2021/12/31 06:18:43;;;;;;;64.23;4.10;;;;;;;12.51;100.00;98553.34;5080434;28;20604;-79
2021/12/31 06:21:11;;;;;;;74.60;4.70;;;;;;;12.56;100.00;98556.06;5086179;28;20638;-78
2021/12/31 06:23:38;;;;;;;50.30;3.03;;;;;;;12.57;100.00;98556.84;5078823;28;20618;-79
2021/12/31 06:26:05;;;;;;;32.07;2.47;;;;;;;12.60;100.00;98559.81;5108963;28;20604;-79
2021/12/31 06:28:32;;;;;;;54.10;3.53;;;;;;;12.63;100.00;98553.94;5078211;28;20620;-78
2021/12/31 06:30:59;;;;;;;48.93;3.20;;;;;;;12.63;100.00;98553.13;5083038;28;20610;-80
2021/12/31 06:33:25;;;;;;;50.90;3.20;;;;;;;12.62;100.00;98555.03;5079863;28;20617;-79
2021/12/31 06:35:52;;;;;;;48.40;3.47;;;;;;;12.66;100.00;98557.97;5079458;28;20673;-79
2021/12/31 06:38:20;;;;;;;62.00;4.30;;;;;;;12.62;100.00;98555.03;5076321;28;20621;-79
2021/12/31 06:40:47;;;;;;;75.80;5.60;;;;;;;12.56;100.00;98547.22;5080136;28;20625;-79
2021/12/31 06:43:14;;;;;;;44.20;3.73;;;;;;;12.50;100.00;98553.59;5086742;28;20712;-79
2021/12/31 06:45:41;;;;;;;63.73;4.87;;;;;;;12.48;100.00;98561.88;5080091;28;20613;-78
2021/12/31 06:48:07;;;;;;;82.83;5.03;;;;;;;12.49;100.00;98557.34;5077177;28;20631;-80
2021/12/31 06:50:34;;;;;;;91.77;5.53;;;;;;;12.54;100.00;98554.69;5076823;28;20595;-80
2021/12/31 06:53:02;;;;;;;47.57;3.80;;;;;;;12.43;100.00;98556.50;5083481;28;20655;-81
2021/12/31 06:55:32;;;;;;;54.77;3.97;;;;;;;12.30;100.00;98556.97;5073961;28;20621;-79
2021/12/31 06:57:59;;;;;;;86.97;5.73;;;;;;;12.29;100.00;98552.66;5078900;28;20617;-79
2021/12/31 07:00:26;;;;;;;58.83;4.10;;;;;;;12.45;100.00;98557.84;5075708;28;20594;-80
2021/12/31 07:03:04;;;;;;;38.80;3.43;;;;;;;12.52;100.00;98548.78;5077339;28;20637;-79
2021/12/31 07:05:31;;;;;;;67.80;5.00;;;;;;;12.56;100.00;98555.25;5079220;28;20609;-79
2021/12/31 07:07:57;;;;;;;56.57;3.70;;;;;;;12.43;100.00;98559.19;5111990;28;20627;-79
2021/12/31 07:10:24;;;;;;;44.53;3.37;;;;;;;12.55;100.00;98553.63;5076857;28;21142;-79
2021/12/31 07:12:58;;;;;;;63.50;5.00;;;;;;;12.58;100.00;98551.25;5074961;28;20607;-79
2021/12/31 07:15:25;;;;;;;57.73;4.13;;;;;;;12.59;100.00;98552.03;5078197;28;20979;-79
2021/12/31 07:17:51;;;;;;;62.50;4.30;;;;;;;12.60;100.00;98559.81;5077549;28;20622;-80
2021/12/31 07:20:19;;;;;;;61.07;4.30;;;;;;;12.49;100.00;98563.50;5075337;28;20598;-79
2021/12/31 07:22:45;;;;;;;47.53;3.50;;;;;;;12.33;100.00;98553.75;5082927;28;20644;-79
2021/12/31 07:25:13;;;;;;;57.90;4.07;;;;;;;12.27;100.00;98560.97;5088046;28;20613;-80
2021/12/31 07:27:39;;;;;;;60.50;4.40;;;;;;;12.39;100.00;98564.25;5079425;28;20610;-80
2021/12/31 07:30:09;;;;;;;61.20;4.40;;;;;;;12.48;100.00;98559.22;5078932;28;20612;-80
2021/12/31 07:32:36;;;;;;;42.93;3.93;;;;;;;12.49;100.00;98562.69;5076708;28;20696;-79
2021/12/31 07:35:04;;;;;;;52.40;3.90;;;;;;;12.48;100.00;98561.88;5077323;28;20606;-78
2021/12/31 07:37:31;;;;;;;72.83;5.40;;;;;;;12.41;100.00;98569.34;5081068;28;20800;-78
2021/12/31 07:40:02;;;;;;;30.80;2.97;;;;;;;12.43;100.00;98564.56;5079961;28;20964;-79
2021/12/31 07:42:29;;;;;;;46.80;3.47;;;;;;;12.47;100.00;98571.00;5077663;28;20658;-79
2021/12/31 07:44:56;;;;;;;56.47;3.70;;;;;;;12.47;100.00;98565.66;5076245;28;20622;-80
2021/12/31 07:47:25;;;;;;;45.10;4.03;;;;;;;12.53;100.00;98575.34;5078186;28;20639;-79
2021/12/31 07:49:51;;;;;;;32.57;3.43;;;;;;;12.55;100.00;98567.84;5078281;28;20643;-80
2021/12/31 07:52:18;;;;;;;62.93;4.90;;;;;;;12.58;100.00;98577.22;5075693;28;20613;-79
2021/12/31 07:54:45;;;;;;;56.67;3.83;;;;;;;12.64;100.00;98571.63;5074228;28;20770;-80
2021/12/31 07:57:12;;;;;;;70.87;5.00;;;;;;;12.63;100.00;98572.69;5075336;28;20607;-80
2021/12/31 07:59:38;;;;;;;64.23;5.00;;;;;;;12.64;100.00;98570.81;5074312;28;20652;-80
2021/12/31 08:02:05;;;;;;;45.87;3.63;;;;;;;12.66;100.00;98571.34;5076405;28;20646;-80
2021/12/31 08:04:33;;;;;;;71.43;5.67;;;;;;;12.61;100.00;98579.38;5077993;28;21343;-79
2021/12/31 08:07:00;;;;;;;44.80;3.63;;;;;;;12.67;100.00;98579.16;5077543;28;20602;-79
2021/12/31 08:09:27;;;;;;;80.43;5.03;;;;;;;12.71;100.00;98580.25;5075759;28;20610;-79
2021/12/31 08:11:54;;;;;;;66.20;5.07;;;;;;;12.76;100.00;98571.41;5080298;28;20632;-79
2021/12/31 08:14:20;;;;;;;42.20;4.57;;;;;;;12.70;100.00;98575.94;5075615;28;20616;-79
2021/12/31 08:16:48;;;;;;;38.27;2.83;;;;;;;12.68;100.00;98572.75;5074432;28;20605;-79
2021/12/31 08:19:14;;;;;;;49.37;3.70;;;;;;;12.56;100.00;98571.31;5075142;28;20642;-80
2021/12/31 08:24:24;;;;;;;28.73;2.57;;;;;;;12.59;100.00;98578.84;5077527;28;20593;-80
2021/12/31 08:26:50;;;;;;;66.23;4.13;;;;;;;12.62;100.00;98570.28;5077691;28;20602;-79
2021/12/31 08:29:18;;;;;;;55.47;3.87;;;;;;;12.61;100.00;98565.97;5073968;28;20611;-77
2021/12/31 08:31:45;;;;;;;81.37;5.47;;;;;;;12.58;100.00;98578.03;5077281;28;21172;-77
2021/12/31 08:34:13;;;;;;;55.73;4.30;;;;;;;12.65;100.00;98575.13;5083845;28;20616;-77
2021/12/31 08:36:40;;;;;;;67.77;4.70;;;;;;;12.66;100.00;98585.56;5077873;28;20590;-79
2021/12/31 08:39:09;;;;;;;44.00;3.80;;;;;;;12.61;100.00;98585.56;5076149;28;20682;-79
2021/12/31 08:41:37;;;;;;;109.50;7.03;;;;;;;12.60;100.00;98585.78;5074858;28;20628;-79
2021/12/31 08:44:05;;;;;;;33.80;2.63;;;;;;;12.66;100.00;98590.94;5075125;28;20632;-79
2021/12/31 08:46:31;;;;;;;79.33;5.70;;;;;;;12.62;100.00;98589.03;5076604;28;20594;-78
2021/12/31 08:48:58;;;;;;;65.37;5.17;;;;;;;12.59;100.00;98603.78;5075471;28;20604;-79
2021/12/31 08:51:25;;;;;;;50.27;4.40;;;;;;;12.64;100.00;98593.06;5074475;28;20602;-80
2021/12/31 08:53:52;;;;;;;47.07;4.43;;;;;;;12.67;100.00;98597.09;5080719;28;20989;-80
2021/12/31 08:56:20;;;;;;;67.80;5.90;;;;;;;12.73;100.00;98599.56;5072365;28;20606;-80
2021/12/31 08:58:47;;;;;;;82.03;5.90;;;;;;;12.81;100.00;98593.69;5075254;28;20594;-79
2021/12/31 09:01:14;;;;;;;102.30;7.00;;;;;;;12.75;100.00;98589.38;5077269;28;20614;-79
2021/12/31 09:03:41;;;;;;;68.77;6.03;;;;;;;12.80;100.00;98591.28;5075852;28;20676;-78
2021/12/31 09:06:08;;;;;;;61.90;6.13;;;;;;;12.82;100.00;98591.81;5074625;28;20603;-79
2021/12/31 09:08:35;;;;;;;38.80;4.07;;;;;;;12.87;100.00;98586.50;5073828;28;20700;-79
2021/12/31 09:11:03;;;;;;;88.73;6.17;;;;;;;12.87;100.00;98589.97;5073829;28;20684;-79
2021/12/31 09:13:32;;;;;;;66.27;4.53;;;;;;;12.81;100.00;98592.91;5075990;28;20613;-79
2021/12/31 09:15:59;;;;;;;75.87;6.43;;;;;;;12.76;100.00;98591.00;5075906;28;20651;-79
2021/12/31 09:18:25;;;;;;;66.73;5.43;;;;;;;12.72;100.00;98592.56;5073595;28;20599;-79
2021/12/31 09:20:53;;;;;;;91.93;6.90;;;;;;;12.74;100.00;98593.13;5072208;28;20614;-79
2021/12/31 09:23:20;;;;;;;74.30;5.57;;;;;;;12.80;100.00;98589.41;5078839;28;20669;-78
2021/12/31 09:25:47;;;;;;;56.93;5.00;;;;;;;12.79;100.00;98587.78;5072392;28;20664;-79
2021/12/31 09:28:13;;;;;;;71.97;6.00;;;;;;;12.89;100.00;98584.34;5072181;28;20613;-78
2021/12/31 09:30:41;;;;;;;69.07;5.60;;;;;;;12.85;100.00;98583.25;5073091;28;20610;-79
2021/12/31 09:33:08;;;;;;;118.43;7.23;;;;;;;12.72;100.00;98581.84;5074938;28;20724;-82
2021/12/31 09:35:36;;;;;;;84.70;6.57;;;;;;;12.78;100.00;98582.72;5075762;28;20597;-78
2021/12/31 09:38:08;;;;;;;83.70;6.60;;;;;;;12.84;100.00;98587.81;5073755;28;20590;-79
2021/12/31 09:40:34;;;;;;;60.60;4.57;;;;;;;12.69;100.00;98574.31;5077446;28;20621;-79
2021/12/31 09:43:03;;;;;;;93.60;6.90;;;;;;;12.77;100.00;98578.41;5077991;28;20665;-79
2021/12/31 09:45:31;;;;;;;85.77;6.73;;;;;;;12.87;100.00;98584.59;5080081;28;21240;-77
2021/12/31 09:48:00;;;;;;;110.70;7.33;;;;;;;12.85;100.00;98586.75;5077529;28;20605;-78
2021/12/31 09:50:26;;;;;;;116.10;7.50;;;;;;;12.91;100.00;98583.03;5076816;28;20598;-78
2021/12/31 09:52:54;;;;;;;103.37;7.20;;;;;;;12.89;100.00;98573.63;5082026;28;20593;-79
2021/12/31 09:55:38;;;;;;;53.77;4.40;;;;;;;12.99;100.00;98587.91;5079579;28;20593;-78
2021/12/31 09:58:05;;;;;;;63.77;4.90;;;;;;;13.04;100.00;98576.38;5077767;28;20609;-78
2021/12/31 10:00:32;;;;;;;79.30;5.40;;;;;;;13.04;100.00;98576.38;5079709;28;20622;-78
2021/12/31 10:03:15;;;;;;;44.77;4.50;;;;;;;13.09;100.00;98567.59;5079355;28;20646;-78
2021/12/31 10:05:43;;;;;;;102.13;7.50;;;;;;;12.97;100.00;98575.81;5078954;28;20605;-79
2021/12/31 10:08:18;;;;;;;100.43;6.50;;;;;;;13.01;100.00;98571.53;5079906;28;20915;-79
2021/12/31 10:11:01;;;;;;;46.53;4.13;;;;;;;13.07;100.00;98577.72;5078236;28;20601;-79
2021/12/31 10:13:28;;;;;;;48.43;4.03;;;;;;;13.01;100.00;98579.56;5081416;28;20616;-79
2021/12/31 10:15:56;;;;;;;91.83;7.33;;;;;;;13.16;100.00;98573.50;5078275;28;20605;-78
2021/12/31 10:18:29;;;;;;;59.33;5.97;;;;;;;13.09;100.00;98564.91;5076148;28;20606;-78
2021/12/31 10:20:56;;;;;;;33.20;4.83;;;;;;;12.88;100.00;98561.28;5081186;28;21187;-79
2021/12/31 10:23:23;;;;;;;58.00;7.00;;;;;;;12.91;100.00;98556.22;5083477;28;20657;-79
2021/12/31 10:25:49;;;;;;;71.30;6.37;;;;;;;12.75;100.00;98564.47;5078362;28;20611;-78
2021/12/31 10:28:18;;;;;;;62.60;7.57;;;;;;;12.94;100.00;98554.88;5080299;28;20597;-79
2021/12/31 10:30:45;;;;;;;80.10;7.20;;;;;;;13.00;100.00;98543.91;5083377;28;20685;-78
2021/12/31 10:33:13;;;;;;;71.63;7.50;;;;;;;13.06;100.00;98543.94;5077314;28;20621;-78
2021/12/31 10:35:44;;;;;;;94.57;7.93;;;;;;;12.95;100.00;98543.91;5076825;28;20629;-79
2021/12/31 10:38:12;;;;;;;108.63;8.27;;;;;;;12.77;100.00;98533.66;5078303;28;20614;-79
2021/12/31 10:40:43;;;;;;;59.63;6.70;;;;;;;12.90;100.00;98545.75;5079477;28;20609;-79
2021/12/31 10:43:12;;;;;;;54.60;6.37;;;;;;;12.93;100.00;98535.31;5077606;28;20718;-79
2021/12/31 10:45:39;;;;;;;45.53;5.50;;;;;;;12.80;100.00;98535.00;5077001;28;20629;-79
2021/12/31 10:48:07;;;;;;;41.70;6.20;;;;;;;13.07;100.00;98529.44;5079131;28;20594;-78
2021/12/31 10:50:35;;;;;;;68.13;8.20;;;;;;;13.05;100.00;98520.88;5079098;28;20601;-79
2021/12/31 10:53:11;;;;;;;73.27;8.00;;;;;;;12.99;100.00;98528.91;5076889;28;20606;-79
2021/12/31 10:55:40;;;;;;;76.90;9.03;;;;;;;13.18;100.00;98525.78;5078716;28;21110;-78
2021/12/31 10:58:12;;;;;;;43.50;5.33;;;;;;;13.15;100.00;98523.63;5077274;28;20601;-78
2021/12/31 11:00:41;;;;;;;53.73;7.00;;;;;;;13.13;100.00;98528.44;5075140;28;20614;-78
2021/12/31 11:03:09;;;;;;;70.10;6.90;;;;;;;13.03;100.00;98526.47;5077669;28;20653;-79
2021/12/31 11:05:37;;;;;;;44.40;6.53;;;;;;;13.05;100.00;98528.91;5078213;28;20821;-79
2021/12/31 11:08:08;;;;;;;66.83;7.53;;;;;;;13.00;100.00;98524.34;5093520;28;20594;-78
2021/12/31 11:10:36;;;;;;;54.20;6.20;;;;;;;13.02;100.00;98526.75;5076384;28;20636;-79
2021/12/31 11:13:09;;;;;;;124.67;9.23;;;;;;;13.05;100.00;98523.56;5077303;28;21061;-79
2021/12/31 11:15:35;;;;;;;68.87;6.87;;;;;;;12.96;100.00;98510.66;5078106;28;20618;-79
2021/12/31 11:18:02;;;;;;;159.93;10.97;;;;;;;13.00;100.00;98518.97;5077897;28;20628;-79
2021/12/31 11:20:31;;;;;;;112.93;9.03;;;;;;;12.98;100.00;98513.06;5077444;28;20633;-76
2021/12/31 11:22:58;;;;;;;89.87;8.63;;;;;;;13.23;100.00;98509.69;5083437;28;20665;-78